TLSO2: Arkansas River, Tulsa, OK

                                SHEF ID:       TLSO2     Arkansas River at Tulsa, OK
STATION TYPE: Stream Gauge
Regulating: Stage = 15.00, Flow = 101720

PRECIP STAGE STAGE(2) RIV-FLOW WTR-TEMP DIS-OXY BAT-LOAD
in ft ft cfs F mg/l volt
Ccp-Rev Ccp-Rev Ccp-Rev Ccp-Rev Ccp-Rev Ccp-Rev Ccp-Rev
(America/Chicago)
07/17 00:00 0.00 4.83 ---- 13327 83.52 5.48 ----
07/17 01:00 0.00 4.76 ---- 12817 83.07 4.94 ----
07/17 02:00 0.00 4.72 ---- 12528 82.89 4.78 ----
07/17 03:00 0.00 4.74 ---- 12672 82.67 4.77 ----
07/17 04:00 0.00 4.73 ---- 12600 82.45 4.72 ----
07/17 05:00 0.00 4.72 ---- 12528 82.35 4.67 ----
07/17 06:00 0.00 4.72 ---- 12528 82.20 4.71 ----
07/17 07:00 0.00 4.71 ---- 12456 81.90 4.77 ----
07/17 08:00 0.00 4.70 ---- 12384 82.22 4.75 ----
07/17 09:00 0.00 4.70 ---- 12384 82.47 4.82 ----
07/17 10:00 0.00 4.63 ---- 11883 82.90 4.98 ----
07/17 11:00 0.00 4.59 ---- 11600 83.70 5.07 ----
07/17 12:00 0.00 4.56 ---- 11388 84.16 5.13 ----
07/17 13:00 0.00 4.57 ---- 11458 84.83 5.24 ----
07/17 14:00 0.00 4.55 ---- 11318 85.57 5.18 ----
07/17 15:00 0.00 4.56 ---- 11388 86.16 5.32 ----
07/17 16:00 0.00 4.55 ---- 11318 86.90 5.51 ----
07/17 17:00 0.00 4.54 ---- 11247 87.10 5.54 ----
07/17 18:00 0.00 4.55 ---- 11318 87.24 5.61 ----
07/17 19:00 0.00 4.53 ---- 11177 87.13 5.53 ----
07/17 20:00 0.00 4.52 ---- 11107 86.88 5.60 ----
07/17 21:00 0.00 4.54 ---- 11247 86.32 5.36 ----
07/17 22:00 0.00 4.62 ---- 11812 85.89 5.25 ----
07/17 23:00 0.00 4.69 ---- 12312 85.32 5.13 ----
Data processed at Sat 18Jul2026 04:48 GMT

NOTICE: If you are parsing this page

Please convert to using our Data API. Starting early 2026 we will be migrating to: https://water.usace.army.mil with modern pages rendered in JavaScript. When this migration completes you will no longer be able to scrape this page! CWMSDataAPI (CDA)

Timeseries IDs (TSIDs)

TSIDs used from left to right in the data table
TULA.Precip-Inc.Total.1Hour.1Hour.Ccp-Rev
TULA.Stage.Inst.1Hour.0.Ccp-Rev
TULA.Stage-Alt.Inst.1Hour.0.Ccp-Rev
TULA.Flow.Inst.1Hour.0.Ccp-Rev
TULA.Temp-Water.Inst.1Hour.0.Ccp-Rev
TULA.Conc-DO.Inst.1Hour.0.Ccp-Rev
TULA.Volt-Battery Load.Inst.1Hour.0.Ccp-Rev

                            

All information presented herein is the property of the government of the United States of America and may be revised or deleted at any time without prior notice. Dissemination of this information without the expressed written consent of the Public Affairs Office, Tulsa District U.S. Army Corps of Engineers is strictly prohibited. These data are gathered electronically and, as presented, have NOT undergone any form of quality control. These data are NOT guaranteed to be valid or correct.